Time;durP1;ratioP1;P1;durP2;ratioP2;P2;SDS_P1;SDS_P2;PMS_P1;PMS_P2;Temp;Humidity;BMP_temperature;BMP_pressure;BME280_temperature;BME280_humidity;BME280_pressure;Samples;Min_cycle;Max_cycle;Signal;HPM_P1;HPM_P2
2022/11/14 00:00:46;;;;;;;44.92;31.13;;;;;;;;;;4983597;28;20062;-75
2022/11/14 00:03:12;;;;;;;47.10;30.65;;;;;;;;;;4983680;28;20023;-75
2022/11/14 00:05:42;;;;;;;47.10;30.38;;;;;;;;;;4983205;28;20026;-74
2022/11/14 00:08:19;;;;;;;49.03;31.77;;;;;;;;;;4983669;28;20034;-75
2022/11/14 00:10:46;;;;;;;44.83;30.45;;;;;;;;;;4979004;28;20073;-74
2022/11/14 00:13:12;;;;;;;47.88;30.77;;;;;;;;;;4969140;28;20114;-74
2022/11/14 00:15:38;;;;;;;50.55;32.42;;;;;;;;;;4981200;28;20035;-74
2022/11/14 00:18:04;;;;;;;50.75;32.55;;;;;;;;;;4964948;28;20672;-72
2022/11/14 00:20:31;;;;;;;50.92;32.45;;;;;;;;;;4969703;28;20098;-74
2022/11/14 00:22:57;;;;;;;46.60;31.65;;;;;;;;;;4985069;28;20074;-74
2022/11/14 00:25:23;;;;;;;52.58;33.03;;;;;;;;;;4987987;28;20544;-74
2022/11/14 00:27:49;;;;;;;48.30;32.35;;;;;;;;;;4987014;28;20026;-74
2022/11/14 00:30:15;;;;;;;52.67;33.38;;;;;;;;;;4973362;28;20400;-74
2022/11/14 00:32:41;;;;;;;50.95;33.20;;;;;;;;;;4975252;28;20039;-74
2022/11/14 00:35:10;;;;;;;52.15;33.58;;;;;;;;;;4967809;28;20062;-73
2022/11/14 00:37:36;;;;;;;54.83;34.00;;;;;;;;;;4974939;28;20019;-75
2022/11/14 00:40:02;;;;;;;54.33;33.95;;;;;;;;;;4963628;28;20089;-74
2022/11/14 00:42:28;;;;;;;57.15;34.38;;;;;;;;;;4964725;28;20054;-74
2022/11/14 00:44:54;;;;;;;56.85;34.80;;;;;;;;;;4978941;28;20038;-73
2022/11/14 00:47:20;;;;;;;59.15;34.97;;;;;;;;;;4978595;28;20035;-73
2022/11/14 00:49:47;;;;;;;60.35;35.70;;;;;;;;;;4981131;28;20122;-74
2022/11/14 00:52:14;;;;;;;57.75;35.33;;;;;;;;;;4964170;28;20039;-74
2022/11/14 00:54:40;;;;;;;63.17;36.88;;;;;;;;;;4976364;28;20073;-75
2022/11/14 00:57:06;;;;;;;61.67;36.53;;;;;;;;;;4953585;28;20034;-76
2022/11/14 00:59:32;;;;;;;60.85;35.63;;;;;;;;;;4973552;28;20039;-74
2022/11/14 01:01:58;;;;;;;61.45;38.63;;;;;;;;;;4968185;28;20013;-74
2022/11/14 01:04:24;;;;;;;67.13;37.40;;;;;;;;;;4966504;28;20086;-75
2022/11/14 01:06:50;;;;;;;66.10;37.80;;;;;;;;;;4967074;28;20068;-74
2022/11/14 01:09:16;;;;;;;62.97;38.13;;;;;;;;;;4964289;28;20132;-74
2022/11/14 01:11:42;;;;;;;67.00;37.42;;;;;;;;;;4966721;28;20375;-73
2022/11/14 01:14:08;;;;;;;65.88;37.90;;;;;;;;;;4967611;28;20046;-74
2022/11/14 01:16:34;;;;;;;79.35;39.47;;;;;;;;;;4964676;28;20101;-74
2022/11/14 01:19:01;;;;;;;69.90;38.65;;;;;;;;;;4962356;28;20090;-74
2022/11/14 01:21:27;;;;;;;66.95;37.55;;;;;;;;;;4965647;28;20027;-74
2022/11/14 01:23:53;;;;;;;70.78;40.00;;;;;;;;;;4951280;28;20046;-75
2022/11/14 01:26:19;;;;;;;67.72;38.35;;;;;;;;;;4946118;28;20027;-74
2022/11/14 01:28:45;;;;;;;78.50;40.58;;;;;;;;;;4947024;28;20050;-75
2022/11/14 01:31:11;;;;;;;74.95;40.08;;;;;;;;;;4968831;28;20102;-74
2022/11/14 01:33:37;;;;;;;74.60;41.88;;;;;;;;;;4963489;28;20035;-73
2022/11/14 01:36:03;;;;;;;78.43;40.40;;;;;;;;;;4979737;28;20061;-74
2022/11/14 01:38:29;;;;;;;80.95;41.80;;;;;;;;;;4978638;28;20018;-74
2022/11/14 01:40:55;;;;;;;76.70;42.35;;;;;;;;;;4988018;28;20022;-74
2022/11/14 01:43:26;;;;;;;77.05;43.83;;;;;;;;;;4974162;28;20516;-74
2022/11/14 01:46:01;;;;;;;78.10;41.42;;;;;;;;;;4984613;28;20027;-74
2022/11/14 01:48:43;;;;;;;84.15;43.70;;;;;;;;;;4980939;28;20031;-73
2022/11/14 01:51:18;;;;;;;91.15;44.67;;;;;;;;;;4992129;28;20347;-73
2022/11/14 01:53:45;;;;;;;88.85;44.05;;;;;;;;;;4992409;28;20034;-73
2022/11/14 01:56:14;;;;;;;91.07;45.17;;;;;;;;;;4989077;28;20022;-71
2022/11/14 01:58:42;;;;;;;92.07;44.67;;;;;;;;;;4969695;28;20137;-73
2022/11/14 02:01:08;;;;;;;93.88;45.72;;;;;;;;;;4988804;28;20113;-73
2022/11/14 02:03:37;;;;;;;99.68;47.58;;;;;;;;;;4988986;28;20046;-73
2022/11/14 02:06:07;;;;;;;93.72;45.53;;;;;;;;;;4990916;28;20057;-73
2022/11/14 02:08:33;;;;;;;94.80;44.50;;;;;;;;;;4990876;28;20037;-75
2022/11/14 02:10:59;;;;;;;90.95;46.08;;;;;;;;;;4990487;28;20036;-74
2022/11/14 02:13:25;;;;;;;106.70;47.22;;;;;;;;;;4989792;28;20090;-74
2022/11/14 02:15:51;;;;;;;113.00;51.72;;;;;;;;;;4986854;28;20057;-75
2022/11/14 02:18:17;;;;;;;123.78;53.20;;;;;;;;;;4986822;28;20074;-75
2022/11/14 02:20:43;;;;;;;126.05;56.13;;;;;;;;;;4987029;28;20026;-75
2022/11/14 02:23:10;;;;;;;136.00;56.78;;;;;;;;;;4982322;28;20101;-75
2022/11/14 02:25:37;;;;;;;138.13;55.95;;;;;;;;;;4984200;28;20358;-74
2022/11/14 02:28:04;;;;;;;140.45;57.50;;;;;;;;;;4984235;28;20110;-74
2022/11/14 02:30:30;;;;;;;135.45;57.30;;;;;;;;;;4969707;28;20034;-74
2022/11/14 02:32:56;;;;;;;133.15;57.17;;;;;;;;;;4984743;28;20045;-74
2022/11/14 02:35:22;;;;;;;140.18;60.08;;;;;;;;;;4983412;28;20062;-74
2022/11/14 02:37:48;;;;;;;157.23;61.08;;;;;;;;;;4982090;28;20057;-74
2022/11/14 02:40:14;;;;;;;140.95;59.60;;;;;;;;;;4985053;28;20031;-75
2022/11/14 02:42:40;;;;;;;151.57;62.40;;;;;;;;;;4985904;28;20050;-74
2022/11/14 02:45:06;;;;;;;159.15;63.95;;;;;;;;;;4951588;28;20046;-75
2022/11/14 02:47:32;;;;;;;144.20;60.72;;;;;;;;;;4986459;28;20035;-74
2022/11/14 02:49:58;;;;;;;151.10;62.60;;;;;;;;;;4967365;28;20061;-74
2022/11/14 02:52:24;;;;;;;151.63;63.10;;;;;;;;;;4984658;28;20205;-76
2022/11/14 02:54:50;;;;;;;164.85;66.55;;;;;;;;;;4992465;28;20093;-75
2022/11/14 02:57:16;;;;;;;172.65;65.20;;;;;;;;;;4977256;28;20034;-74
2022/11/14 02:59:42;;;;;;;160.13;66.85;;;;;;;;;;4984111;28;20042;-74
2022/11/14 03:02:08;;;;;;;175.80;67.15;;;;;;;;;;4982957;28;20031;-74
2022/11/14 03:04:34;;;;;;;169.77;66.00;;;;;;;;;;4979906;28;20018;-74
2022/11/14 03:07:00;;;;;;;162.38;66.45;;;;;;;;;;4972955;28;20026;-74
2022/11/14 03:09:26;;;;;;;167.43;67.03;;;;;;;;;;4987872;28;20029;-74
2022/11/14 03:11:52;;;;;;;158.60;66.15;;;;;;;;;;4991386;28;20034;-74
2022/11/14 03:14:18;;;;;;;170.57;66.53;;;;;;;;;;4971215;28;20041;-74
2022/11/14 03:16:44;;;;;;;178.43;68.93;;;;;;;;;;4991177;28;20067;-74
2022/11/14 03:19:10;;;;;;;180.02;68.28;;;;;;;;;;4995979;28;21589;-75
2022/11/14 03:21:36;;;;;;;178.00;67.55;;;;;;;;;;4991591;28;20083;-74
2022/11/14 03:24:02;;;;;;;182.75;70.88;;;;;;;;;;4995107;28;20094;-74
2022/11/14 03:26:28;;;;;;;183.30;69.50;;;;;;;;;;4968685;28;20094;-74
2022/11/14 03:28:54;;;;;;;187.13;69.30;;;;;;;;;;4990438;28;20065;-74
2022/11/14 03:31:20;;;;;;;180.50;70.72;;;;;;;;;;4957258;28;20634;-75
2022/11/14 03:33:46;;;;;;;168.88;67.22;;;;;;;;;;4969442;28;20035;-75
2022/11/14 03:36:12;;;;;;;174.25;68.20;;;;;;;;;;4987694;28;20125;-74
2022/11/14 03:38:39;;;;;;;176.38;69.57;;;;;;;;;;4961928;28;20130;-73
2022/11/14 03:41:05;;;;;;;183.57;68.95;;;;;;;;;;4985717;28;20045;-74
2022/11/14 03:43:33;;;;;;;183.75;69.50;;;;;;;;;;4984714;28;20023;-74
2022/11/14 03:45:59;;;;;;;182.95;68.95;;;;;;;;;;4984723;28;20113;-74
2022/11/14 03:48:25;;;;;;;178.13;68.28;;;;;;;;;;4986642;28;20038;-75
2022/11/14 03:50:52;;;;;;;174.50;67.53;;;;;;;;;;4965820;28;20055;-75
2022/11/14 03:53:18;;;;;;;184.63;68.20;;;;;;;;;;4983534;28;20027;-75
2022/11/14 03:55:44;;;;;;;185.30;67.55;;;;;;;;;;4985176;28;20030;-74
2022/11/14 03:58:10;;;;;;;182.48;69.85;;;;;;;;;;4969642;28;20118;-75
2022/11/14 04:00:36;;;;;;;176.75;68.50;;;;;;;;;;4969524;28;20042;-75
2022/11/14 04:03:02;;;;;;;173.15;66.55;;;;;;;;;;4982561;28;20026;-75
2022/11/14 04:05:28;;;;;;;180.52;69.88;;;;;;;;;;4985947;28;20026;-76
2022/11/14 04:07:54;;;;;;;177.88;66.05;;;;;;;;;;4980859;28;20422;-75
2022/11/14 04:10:20;;;;;;;174.88;66.38;;;;;;;;;;4987983;28;20053;-75
2022/11/14 04:12:48;;;;;;;167.75;65.43;;;;;;;;;;4988592;28;20089;-76
2022/11/14 04:15:14;;;;;;;178.82;66.95;;;;;;;;;;4991152;28;20034;-75
2022/11/14 04:17:40;;;;;;;166.48;65.47;;;;;;;;;;4980015;28;20481;-75
2022/11/14 04:20:06;;;;;;;184.48;67.45;;;;;;;;;;4994914;28;21117;-75
2022/11/14 04:22:32;;;;;;;180.55;63.65;;;;;;;;;;4980492;28;20038;-74
2022/11/14 04:24:58;;;;;;;188.68;65.85;;;;;;;;;;4995098;28;20047;-75
2022/11/14 04:27:24;;;;;;;179.85;67.00;;;;;;;;;;5003311;28;20121;-74
2022/11/14 04:29:50;;;;;;;170.35;64.63;;;;;;;;;;4997284;28;20030;-74
2022/11/14 04:32:16;;;;;;;180.35;66.43;;;;;;;;;;4999509;28;20030;-76
2022/11/14 04:34:42;;;;;;;182.35;67.63;;;;;;;;;;4994409;28;20797;-75
2022/11/14 04:37:08;;;;;;;177.32;65.93;;;;;;;;;;4989669;28;20042;-75
2022/11/14 04:39:34;;;;;;;197.63;66.10;;;;;;;;;;4988074;28;20026;-75
2022/11/14 04:42:00;;;;;;;202.95;67.15;;;;;;;;;;4988066;28;20413;-75
2022/11/14 04:44:26;;;;;;;187.80;67.18;;;;;;;;;;4986627;28;20041;-77
2022/11/14 04:46:52;;;;;;;190.93;66.32;;;;;;;;;;4986568;28;21979;-75
2022/11/14 04:49:18;;;;;;;180.93;65.10;;;;;;;;;;4994650;28;20034;-76
2022/11/14 04:51:44;;;;;;;187.18;65.40;;;;;;;;;;4974116;28;20031;-76
2022/11/14 04:54:10;;;;;;;184.15;65.40;;;;;;;;;;4989745;28;20039;-75
2022/11/14 04:56:36;;;;;;;196.32;67.65;;;;;;;;;;4989550;28;20117;-75
2022/11/14 04:59:02;;;;;;;193.98;67.45;;;;;;;;;;4988963;28;20077;-75
2022/11/14 05:01:28;;;;;;;193.30;65.78;;;;;;;;;;4971280;28;20588;-73
2022/11/14 05:03:55;;;;;;;193.43;65.60;;;;;;;;;;4968986;28;20033;-73
2022/11/14 05:06:21;;;;;;;197.27;66.80;;;;;;;;;;4972273;28;20031;-73
2022/11/14 05:08:47;;;;;;;189.20;65.25;;;;;;;;;;4977952;28;20042;-74
2022/11/14 05:11:14;;;;;;;184.90;65.80;;;;;;;;;;4989766;28;20505;-74
2022/11/14 05:13:40;;;;;;;208.48;65.05;;;;;;;;;;4989483;28;20069;-74
2022/11/14 05:16:06;;;;;;;191.75;64.53;;;;;;;;;;4988318;28;20467;-73
2022/11/14 05:18:32;;;;;;;202.25;67.38;;;;;;;;;;4991442;28;20058;-74
2022/11/14 05:20:59;;;;;;;196.77;63.83;;;;;;;;;;4978212;28;20038;-75
2022/11/14 05:23:25;;;;;;;198.60;62.45;;;;;;;;;;4978283;28;20058;-75
2022/11/14 05:26:00;;;;;;;193.07;61.33;;;;;;;;;;4983521;28;20069;-75
2022/11/14 05:28:26;;;;;;;210.38;66.05;;;;;;;;;;4997634;28;20042;-75
2022/11/14 05:30:52;;;;;;;213.65;64.50;;;;;;;;;;5001227;28;20068;-75
2022/11/14 05:33:18;;;;;;;201.88;65.18;;;;;;;;;;4984099;28;20034;-75
2022/11/14 05:35:44;;;;;;;211.20;63.42;;;;;;;;;;5004585;28;20130;-76
2022/11/14 05:38:10;;;;;;;220.55;68.10;;;;;;;;;;4996312;28;20034;-76
2022/11/14 05:40:36;;;;;;;201.05;64.70;;;;;;;;;;4993986;28;20059;-76
2022/11/14 05:43:02;;;;;;;212.07;66.00;;;;;;;;;;4971577;28;20041;-77
2022/11/14 05:45:30;;;;;;;236.98;64.65;;;;;;;;;;4987089;28;20427;-77
2022/11/14 05:47:56;;;;;;;215.77;62.65;;;;;;;;;;4980491;28;20018;-76
2022/11/14 05:50:22;;;;;;;224.13;66.75;;;;;;;;;;4989082;28;20535;-76
2022/11/14 05:52:48;;;;;;;255.02;71.57;;;;;;;;;;4970112;28;20512;-76
2022/11/14 05:55:33;;;;;;;228.45;68.43;;;;;;;;;;4990194;28;20034;-76
2022/11/14 05:57:59;;;;;;;231.35;69.10;;;;;;;;;;4983482;28;20030;-76
2022/11/14 06:00:25;;;;;;;244.20;68.93;;;;;;;;;;4986192;28;20062;-76
2022/11/14 06:02:55;;;;;;;252.45;70.82;;;;;;;;;;4986133;28;20034;-74
2022/11/14 06:05:22;;;;;;;231.55;67.07;;;;;;;;;;4983825;28;20054;-75
2022/11/14 06:07:54;;;;;;;249.27;68.97;;;;;;;;;;4983423;28;20026;-76
2022/11/14 06:10:20;;;;;;;228.18;69.50;;;;;;;;;;4984385;28;20042;-76
2022/11/14 06:12:46;;;;;;;244.93;68.05;;;;;;;;;;4985570;28;20092;-76
2022/11/14 06:15:12;;;;;;;246.70;71.80;;;;;;;;;;4987638;28;20026;-76
2022/11/14 06:17:39;;;;;;;241.65;69.60;;;;;;;;;;4988633;28;20051;-75
2022/11/14 06:20:05;;;;;;;238.80;70.35;;;;;;;;;;4984606;28;20327;-75
2022/11/14 06:22:32;;;;;;;254.98;69.07;;;;;;;;;;4984236;28;20034;-76
2022/11/14 06:24:58;;;;;;;244.20;70.75;;;;;;;;;;4983450;28;20129;-75
2022/11/14 06:27:24;;;;;;;248.27;69.40;;;;;;;;;;4960974;28;20045;-75
2022/11/14 06:29:50;;;;;;;246.02;68.75;;;;;;;;;;4962593;28;20046;-75
2022/11/14 06:32:16;;;;;;;238.73;67.78;;;;;;;;;;4987338;28;20034;-75
2022/11/14 06:34:42;;;;;;;246.55;68.68;;;;;;;;;;4968314;28;20508;-76
2022/11/14 06:37:08;;;;;;;217.18;66.97;;;;;;;;;;4964830;28;20117;-75
2022/11/14 06:39:34;;;;;;;246.00;66.80;;;;;;;;;;4998239;28;20070;-75
2022/11/14 06:42:00;;;;;;;226.45;63.97;;;;;;;;;;4984416;28;20572;-76
2022/11/14 06:44:26;;;;;;;256.50;68.22;;;;;;;;;;4984667;28;20034;-75
2022/11/14 06:46:52;;;;;;;227.35;68.53;;;;;;;;;;4983845;28;20026;-76
2022/11/14 06:49:18;;;;;;;242.18;66.65;;;;;;;;;;4964495;28;20108;-75
2022/11/14 06:51:44;;;;;;;238.07;68.47;;;;;;;;;;4989602;28;20033;-75
2022/11/14 06:54:11;;;;;;;227.48;67.68;;;;;;;;;;4966852;28;20576;-75
2022/11/14 06:56:37;;;;;;;275.02;73.15;;;;;;;;;;4985009;28;20014;-75
2022/11/14 06:59:03;;;;;;;299.70;70.70;;;;;;;;;;4986458;28;20452;-75
2022/11/14 07:01:29;;;;;;;522.22;89.43;;;;;;;;;;4987315;28;20240;-78
2022/11/14 07:03:57;;;;;;;293.77;71.18;;;;;;;;;;4982278;28;20050;-77
2022/11/14 07:06:24;;;;;;;222.75;64.95;;;;;;;;;;4994871;28;20014;-77
2022/11/14 07:08:54;;;;;;;230.52;66.93;;;;;;;;;;4994667;28;20038;-77
2022/11/14 07:11:22;;;;;;;218.48;64.68;;;;;;;;;;4993059;28;20442;-77
2022/11/14 07:13:55;;;;;;;211.15;61.35;;;;;;;;;;4998205;28;20395;-77
2022/11/14 07:16:24;;;;;;;207.27;64.57;;;;;;;;;;4998028;28;20050;-77
2022/11/14 07:18:50;;;;;;;214.10;63.35;;;;;;;;;;5003857;28;21285;-78
2022/11/14 07:21:16;;;;;;;243.60;67.13;;;;;;;;;;5000296;28;20037;-77
2022/11/14 07:23:42;;;;;;;225.95;66.47;;;;;;;;;;5005949;28;20045;-77
2022/11/14 07:26:09;;;;;;;209.32;63.88;;;;;;;;;;4998294;28;20055;-79
2022/11/14 07:28:36;;;;;;;216.63;65.00;;;;;;;;;;4976518;28;20030;-76
2022/11/14 07:31:03;;;;;;;195.60;60.90;;;;;;;;;;4989779;28;20381;-77
2022/11/14 07:33:29;;;;;;;197.80;62.40;;;;;;;;;;4996240;28;20512;-77
2022/11/14 07:35:55;;;;;;;202.25;62.65;;;;;;;;;;5001467;28;20057;-77
2022/11/14 07:38:21;;;;;;;200.75;63.65;;;;;;;;;;4997397;28;20042;-77
2022/11/14 07:40:53;;;;;;;195.98;62.78;;;;;;;;;;4995570;28;20038;-77
2022/11/14 07:43:19;;;;;;;181.73;60.13;;;;;;;;;;4991332;28;20031;-77
2022/11/14 07:45:45;;;;;;;181.77;61.53;;;;;;;;;;5009721;28;20432;-78
2022/11/14 07:48:31;;;;;;;177.00;61.28;;;;;;;;;;5000829;28;20030;-77
2022/11/14 07:51:01;;;;;;;164.50;59.03;;;;;;;;;;5006913;28;20050;-78
2022/11/14 07:53:28;;;;;;;169.05;60.55;;;;;;;;;;4979842;28;20503;-77
2022/11/14 07:55:55;;;;;;;162.30;58.78;;;;;;;;;;5003469;28;20030;-79
2022/11/14 07:58:21;;;;;;;148.38;54.22;;;;;;;;;;4993244;28;20103;-78
2022/11/14 08:00:47;;;;;;;149.18;57.00;;;;;;;;;;4996252;28;20042;-78
2022/11/14 08:03:31;;;;;;;142.35;53.58;;;;;;;;;;4977436;28;20092;-78
2022/11/14 08:06:05;;;;;;;130.77;53.47;;;;;;;;;;4996219;28;20061;-76
2022/11/14 08:08:32;;;;;;;137.10;52.58;;;;;;;;;;4974797;28;20405;-76
2022/11/14 08:10:58;;;;;;;135.20;52.38;;;;;;;;;;4960233;28;20420;-76
2022/11/14 08:13:25;;;;;;;124.10;50.38;;;;;;;;;;4973262;28;20302;-78
2022/11/14 08:15:51;;;;;;;116.03;48.42;;;;;;;;;;4994346;28;20101;-77
2022/11/14 08:18:17;;;;;;;132.18;50.78;;;;;;;;;;4995821;28;20110;-77
2022/11/14 08:20:43;;;;;;;116.13;48.58;;;;;;;;;;4996228;28;20101;-77
2022/11/14 08:23:09;;;;;;;121.32;47.10;;;;;;;;;;4976297;28;20026;-77
2022/11/14 08:25:35;;;;;;;160.52;51.00;;;;;;;;;;4990410;28;20030;-76
2022/11/14 08:28:02;;;;;;;111.20;46.47;;;;;;;;;;4977356;28;20046;-76
2022/11/14 08:30:28;;;;;;;102.90;44.72;;;;;;;;;;4996214;28;20045;-77
2022/11/14 08:32:54;;;;;;;97.88;44.08;;;;;;;;;;4998987;28;20848;-76
2022/11/14 08:35:20;;;;;;;91.30;43.20;;;;;;;;;;4995925;28;20140;-76
2022/11/14 08:37:46;;;;;;;96.20;42.80;;;;;;;;;;4994151;28;20033;-77
2022/11/14 08:40:13;;;;;;;86.70;39.30;;;;;;;;;;5000755;28;20042;-76
2022/11/14 08:42:39;;;;;;;113.95;42.05;;;;;;;;;;5005041;28;20019;-76
2022/11/14 08:45:05;;;;;;;95.22;40.88;;;;;;;;;;4996765;28;20132;-76
2022/11/14 08:47:31;;;;;;;92.90;42.35;;;;;;;;;;4992264;28;20026;-76
2022/11/14 08:49:57;;;;;;;78.60;37.28;;;;;;;;;;4994131;28;20062;-76
2022/11/14 08:52:23;;;;;;;92.82;40.10;;;;;;;;;;4961437;28;20062;-81
2022/11/14 08:54:51;;;;;;;105.20;36.95;;;;;;;;;;4978757;28;20050;-76
2022/11/14 08:57:17;;;;;;;70.30;36.03;;;;;;;;;;4983156;28;20026;-77
2022/11/14 08:59:43;;;;;;;69.63;34.03;;;;;;;;;;5002719;28;20421;-76
2022/11/14 09:02:10;;;;;;;63.33;33.42;;;;;;;;;;4973342;28;20034;-76
2022/11/14 09:04:37;;;;;;;69.95;34.63;;;;;;;;;;4992544;28;20047;-76
2022/11/14 09:07:03;;;;;;;61.08;32.58;;;;;;;;;;4974350;28;20052;-76
2022/11/14 09:09:30;;;;;;;66.18;32.08;;;;;;;;;;4999023;28;20537;-77
2022/11/14 09:11:56;;;;;;;55.13;30.90;;;;;;;;;;4981319;28;20049;-76
2022/11/14 09:14:22;;;;;;;69.40;32.22;;;;;;;;;;5002067;28;20447;-76
2022/11/14 09:16:48;;;;;;;56.40;30.05;;;;;;;;;;4991113;28;20053;-76
2022/11/14 09:19:14;;;;;;;60.13;30.20;;;;;;;;;;4991095;28;20049;-76
2022/11/14 09:21:40;;;;;;;50.70;28.50;;;;;;;;;;5012091;28;20109;-75
2022/11/14 09:24:06;;;;;;;52.08;28.73;;;;;;;;;;5002973;28;20042;-75
2022/11/14 09:26:32;;;;;;;51.45;27.58;;;;;;;;;;5001379;28;20121;-76
2022/11/14 09:28:59;;;;;;;55.58;28.25;;;;;;;;;;5001448;28;20042;-76
2022/11/14 09:31:25;;;;;;;47.45;26.92;;;;;;;;;;4988220;28;20038;-77
2022/11/14 09:33:51;;;;;;;46.67;27.38;;;;;;;;;;5003493;28;20077;-74
2022/11/14 09:36:18;;;;;;;72.85;28.27;;;;;;;;;;5000392;28;20042;-77
2022/11/14 09:38:44;;;;;;;44.13;24.90;;;;;;;;;;4988348;28;20106;-76
2022/11/14 09:41:33;;;;;;;45.05;26.10;;;;;;;;;;5007321;28;20010;-77
2022/11/14 09:44:00;;;;;;;39.63;24.20;;;;;;;;;;4988459;28;20194;-76
2022/11/14 09:46:53;;;;;;;40.95;24.85;;;;;;;;;;4996498;28;20045;-76
2022/11/14 09:49:39;;;;;;;39.67;24.17;;;;;;;;;;5003140;28;20027;-75
2022/11/14 09:52:25;;;;;;;42.95;25.15;;;;;;;;;;5000946;28;20045;-75
2022/11/14 09:54:53;;;;;;;43.78;24.17;;;;;;;;;;4984002;28;20041;-76
2022/11/14 09:57:20;;;;;;;38.80;24.55;;;;;;;;;;5000408;28;20058;-76
2022/11/14 10:00:05;;;;;;;37.50;22.30;;;;;;;;;;4980485;28;20076;-76
2022/11/14 10:02:35;;;;;;;35.65;21.98;;;;;;;;;;4995695;28;20401;-76
2022/11/14 10:05:14;;;;;;;36.67;21.50;;;;;;;;;;4993417;28;20046;-76
2022/11/14 10:07:59;;;;;;;33.45;21.63;;;;;;;;;;4988787;28;20113;-76
2022/11/14 10:10:25;;;;;;;36.47;21.63;;;;;;;;;;4997985;28;20046;-76
2022/11/14 10:13:03;;;;;;;33.90;20.92;;;;;;;;;;4993286;28;20409;-76
2022/11/14 10:15:45;;;;;;;36.38;20.58;;;;;;;;;;4993164;28;20109;-76
2022/11/14 10:18:11;;;;;;;35.28;21.50;;;;;;;;;;4978880;28;20160;-76
2022/11/14 10:20:44;;;;;;;34.03;20.85;;;;;;;;;;5000694;28;20026;-76
2022/11/14 10:23:22;;;;;;;36.75;20.55;;;;;;;;;;4987568;28;20336;-76
2022/11/14 10:25:55;;;;;;;30.63;18.42;;;;;;;;;;5002929;28;20026;-77
2022/11/14 10:28:44;;;;;;;29.85;19.27;;;;;;;;;;4989871;28;20047;-77
2022/11/14 10:31:27;;;;;;;32.28;20.13;;;;;;;;;;4985819;28;20164;-76
2022/11/14 10:33:56;;;;;;;29.40;18.00;;;;;;;;;;4993825;28;20068;-75
2022/11/14 10:36:41;;;;;;;31.45;18.95;;;;;;;;;;4988159;28;20089;-76
2022/11/14 10:39:17;;;;;;;28.40;19.52;;;;;;;;;;4985235;28;20026;-75
2022/11/14 10:41:50;;;;;;;32.83;20.20;;;;;;;;;;5053253;27;1310998;-74
2022/11/14 10:44:20;;;;;;;29.50;18.85;;;;;;;;;;5063917;28;20024;-75
2022/11/14 10:46:48;;;;;;;30.52;19.27;;;;;;;;;;5064573;28;20134;-74
2022/11/14 10:49:24;;;;;;;31.50;18.08;;;;;;;;;;5058634;28;20029;-75
2022/11/14 10:51:55;;;;;;;30.88;18.75;;;;;;;;;;5060397;28;20039;-74
2022/11/14 10:54:38;;;;;;;31.02;18.67;;;;;;;;;;5060644;28;20044;-77
2022/11/14 10:57:13;;;;;;;33.53;18.70;;;;;;;;;;5052143;28;20083;-74
2022/11/14 10:59:39;;;;;;;36.10;18.27;;;;;;;;;;5058288;28;20044;-74
2022/11/14 11:02:05;;;;;;;30.45;19.02;;;;;;;;;;5068410;28;20478;-74
2022/11/14 11:04:31;;;;;;;26.63;17.98;;;;;;;;;;5068218;28;20021;-75
2022/11/14 11:07:06;;;;;;;29.67;19.08;;;;;;;;;;5070945;28;20063;-75
2022/11/14 11:12:19;;;;;;;28.00;19.27;;;;;;;;;;5076835;28;20065;-75
2022/11/14 11:14:45;;;;;;;26.27;18.42;;;;;;;;;;5072926;28;20078;-74
2022/11/14 11:17:11;;;;;;;29.48;18.67;;;;;;;;;;5066265;28;20048;-74
2022/11/14 11:19:41;;;;;;;30.40;20.75;;;;;;;;;;5064901;28;20033;-73
2022/11/14 11:22:23;;;;;;;32.55;20.42;;;;;;;;;;5062845;28;20032;-76
2022/11/14 11:24:49;;;;;;;28.33;20.42;;;;;;;;;;5064564;28;20608;-72
2022/11/14 11:27:21;;;;;;;30.73;20.02;;;;;;;;;;5061962;28;20029;-74
2022/11/14 11:30:01;;;;;;;32.53;19.70;;;;;;;;;;5068152;28;20086;-72
2022/11/14 11:32:28;;;;;;;38.03;21.00;;;;;;;;;;5062530;28;20032;-74
2022/11/14 11:34:54;;;;;;;32.10;19.55;;;;;;;;;;5064634;28;20045;-74
2022/11/14 11:37:28;;;;;;;31.02;20.27;;;;;;;;;;5059321;28;20756;-74
2022/11/14 11:39:55;;;;;;;30.45;21.33;;;;;;;;;;5063946;28;20043;-74
2022/11/14 11:42:33;;;;;;;27.25;19.42;;;;;;;;;;5055876;28;20139;-74
2022/11/14 11:45:01;;;;;;;30.90;21.33;;;;;;;;;;5064284;28;20036;-75
2022/11/14 11:47:30;;;;;;;29.85;21.15;;;;;;;;;;5055512;28;20490;-75
2022/11/14 11:49:56;;;;;;;29.33;20.13;;;;;;;;;;5052194;28;20066;-75
2022/11/14 11:52:47;;;;;;;30.77;19.88;;;;;;;;;;5054698;28;20041;-75
2022/11/14 11:55:13;;;;;;;33.63;19.70;;;;;;;;;;5052704;28;20043;-75
2022/11/14 11:57:44;;;;;;;28.77;18.83;;;;;;;;;;5048783;28;20102;-75
2022/11/14 12:00:13;;;;;;;26.48;18.70;;;;;;;;;;5044782;28;20033;-75
2022/11/14 12:02:42;;;;;;;30.13;18.50;;;;;;;;;;5042794;28;20068;-76
2022/11/14 12:05:13;;;;;;;25.65;18.48;;;;;;;;;;5050283;28;20017;-75
2022/11/14 12:07:39;;;;;;;;;;;;;;;;;;5046278;28;20052;-75
2022/11/14 12:10:23;;;;;;;26.95;17.50;;;;;;;;;;5045982;28;20409;-76
2022/11/14 12:12:52;;;;;;;21.90;16.88;;;;;;;;;;5040521;28;20033;-75
2022/11/14 12:15:32;;;;;;;22.83;16.45;;;;;;;;;;5037105;28;20494;-75
2022/11/14 12:18:04;;;;;;;22.83;17.23;;;;;;;;;;5046056;28;20032;-74
2022/11/14 12:20:39;;;;;;;26.10;17.95;;;;;;;;;;5054481;28;20116;-74
2022/11/14 12:23:14;;;;;;;23.52;16.13;;;;;;;;;;5052391;28;20024;-74
2022/11/14 12:25:40;;;;;;;25.88;16.90;;;;;;;;;;5046897;28;20109;-75
2022/11/14 12:28:13;;;;;;;26.85;17.60;;;;;;;;;;5051407;28;20112;-75
2022/11/14 12:30:41;;;;;;;25.23;17.70;;;;;;;;;;5050074;28;20181;-74
2022/11/14 12:33:11;;;;;;;21.88;17.13;;;;;;;;;;5051030;28;20067;-75
2022/11/14 12:35:38;;;;;;;;;;;;;;;;;;5057360;28;20037;-74
2022/11/14 12:38:05;;;;;;;25.00;17.25;;;;;;;;;;5052546;28;19912;-74
2022/11/14 12:40:37;;;;;;;27.10;18.33;;;;;;;;;;5049875;28;20073;-74
2022/11/14 12:43:04;;;;;;;24.92;18.52;;;;;;;;;;5053719;28;20048;-76
2022/11/14 12:45:39;;;;;;;27.88;18.88;;;;;;;;;;5045458;28;20028;-76
2022/11/14 12:48:24;;;;;;;27.52;19.95;;;;;;;;;;5050846;28;20447;-74
2022/11/14 12:50:51;;;;;;;28.92;19.75;;;;;;;;;;5048332;28;20064;-76
2022/11/14 12:53:39;;;;;;;33.42;19.88;;;;;;;;;;5057388;28;20073;-74
2022/11/14 12:56:10;;;;;;;39.78;20.77;;;;;;;;;;5058161;28;20021;-74
2022/11/14 12:58:36;;;;;;;30.55;21.65;;;;;;;;;;5060716;28;20062;-75
2022/11/14 13:01:21;;;;;;;32.10;21.92;;;;;;;;;;5060794;28;20025;-75
2022/11/14 13:03:53;;;;;;;33.60;23.77;;;;;;;;;;5062297;28;20115;-74
2022/11/14 13:06:23;;;;;;;37.90;26.73;;;;;;;;;;5065498;28;20391;-76
2022/11/14 13:08:52;;;;;;;44.40;29.17;;;;;;;;;;5067592;28;20037;-74
2022/11/14 13:22:46;;;;;;;57.97;40.15;;;;;;;;;;5064134;28;20071;-75
2022/11/14 13:25:19;;;;;;;62.55;41.50;;;;;;;;;;5069919;28;20086;-73
2022/11/14 13:27:46;;;;;;;66.85;44.17;;;;;;;;;;5062378;28;20033;-74
2022/11/14 13:30:12;;;;;;;71.43;44.08;;;;;;;;;;5065913;28;20025;-75
2022/11/14 13:32:41;;;;;;;64.03;43.08;;;;;;;;;;5064699;28;20030;-75
2022/11/14 13:35:16;;;;;;;68.88;44.60;;;;;;;;;;5063856;28;20066;-75
2022/11/14 13:38:01;;;;;;;65.85;42.97;;;;;;;;;;5058162;28;20033;-76
2022/11/14 13:40:37;;;;;;;65.05;42.90;;;;;;;;;;5059990;28;20049;-75
2022/11/14 13:43:06;;;;;;;62.30;40.38;;;;;;;;;;5061228;28;20112;-74
2022/11/14 13:46:07;;;;;;;63.75;42.17;;;;;;;;;;5063151;28;20037;-73
2022/11/14 13:48:52;;;;;;;61.85;41.78;;;;;;;;;;4983099;28;20038;-74
2022/11/14 13:51:19;;;;;;;62.05;41.25;;;;;;;;;;5052809;28;20139;-74
2022/11/14 13:53:45;;;;;;;68.47;43.63;;;;;;;;;;5058810;28;20036;-75
2022/11/14 13:56:18;;;;;;;67.18;43.38;;;;;;;;;;5065780;28;20040;-76
2022/11/14 13:58:54;;;;;;;66.28;42.45;;;;;;;;;;5051641;28;20033;-77
2022/11/14 14:01:29;;;;;;;68.85;45.25;;;;;;;;;;5054603;28;20041;-76
2022/11/14 14:04:08;;;;;;;75.45;44.75;;;;;;;;;;5051401;28;20128;-74
2022/11/14 14:09:56;;;;;;;72.82;46.90;;;;;;;;;;5065268;28;20032;-73
2022/11/14 14:12:41;;;;;;;74.93;46.95;;;;;;;;;;5060397;28;20040;-75
2022/11/14 14:15:07;;;;;;;75.70;47.95;;;;;;;;;;5056700;28;20096;-74
2022/11/14 14:17:42;;;;;;;78.85;48.40;;;;;;;;;;5055807;28;20029;-73
2022/11/14 14:20:22;;;;;;;78.53;48.90;;;;;;;;;;5055878;28;20117;-74
2022/11/14 14:22:52;;;;;;;73.70;47.90;;;;;;;;;;5057588;28;20021;-74
2022/11/14 14:25:25;;;;;;;76.95;49.97;;;;;;;;;;5052284;28;20096;-74
2022/11/14 14:28:03;;;;;;;80.65;50.45;;;;;;;;;;5056975;28;20064;-75
2022/11/14 14:30:29;;;;;;;75.25;47.40;;;;;;;;;;5051900;28;20101;-80
2022/11/14 14:33:21;;;;;;;83.90;51.22;;;;;;;;;;5052623;28;20044;-75
2022/11/14 14:35:52;;;;;;;79.15;50.65;;;;;;;;;;5045242;28;20045;-75
2022/11/14 14:38:25;;;;;;;79.15;48.50;;;;;;;;;;5052291;28;20844;-75